Flight Track Log - Related Links

Times and Time Zones

All times are in EDT time to prevent confusion due to time zone crossing. See the GJS3618 flight status page for this flight to view local times or setup timezone preferences in your user account.

Time Position Orientation Groundspeed Altitude Reporting Facility
EDT Latitude Longitude Course Direction KTS MPH feet Rate Location/Type
Fri 09:44:33 PM 39.9167 -104.6500 72° East 195 224 7,600  Level Denver TRACON
Fri 09:45:27 PM 39.9333 -104.5833 72° East 250 288 9,400 1,316 Climbing Denver TRACON
Fri 09:46:27 PM 39.9333 -104.4667 90° East 313 360 10,100 800 Climbing Denver TRACON
Fri 09:47:27 PM 39.9167 -104.3500 101° East 350 403 11,000 1,027 Climbing Denver TRACON
Fri 09:48:18 PM 39.9011 -104.2578 102° East 348 400 12,000 750 Climbing Denver Center
Fri 09:49:19 PM 39.9047 -104.1239 88° East 350 403 12,400 1,268 Climbing Denver Center
Fri 09:50:21 PM 39.9436 -104.0111 66° East 344 396 14,600 2,129 Climbing Denver Center
Fri 09:51:23 PM 39.9833 -103.8825 68° East 355 409 16,800 1,935 Climbing Denver Center
Fri 09:52:25 PM 40.0208 -103.7622 68° East 361 415 18,600 1,500 Climbing Denver Center
Fri 09:53:27 PM 40.0419 -103.6369 78° East 358 412 19,900 1,403 Climbing Denver Center
Fri 09:54:29 PM 40.0678 -103.4847 77° East 382 440 21,500 1,452 Climbing Denver Center
Fri 09:55:31 PM 40.0894 -103.3511 78° East 393 452 22,900 1,415 Climbing Denver Center
Fri 09:56:32 PM 40.1147 -103.1917 78° East 401 461 24,400 1,317 Climbing Denver Center
Fri 09:57:34 PM 40.1367 -103.0542 78° East 403 464 25,600 1,161 Climbing Denver Center
Fri 09:58:36 PM 40.1592 -102.9164 78° East 406 467 26,800 1,161 Climbing Denver Center
Fri 09:59:38 PM 40.1842 -102.7522 79° East 411 473 28,000 871 Climbing Denver Center
Fri 10:00:40 PM 40.2061 -102.6103 79° East 414 476 28,600 581 Climbing Denver Center
Fri 10:01:42 PM 40.2333 -102.4372 78° East 434 499 29,200 581 Climbing Denver Center
Fri 10:02:44 PM 40.2689 -102.2911 72° East 440 506 29,800 683 Climbing Denver Center
Fri 10:03:45 PM 40.3083 -102.1186 73° East 442 509 30,600 732 Climbing Denver Center
Fri 10:04:47 PM 40.3436 -101.9717 72° East 443 510 31,300 726 Climbing Denver Center
Fri 10:05:49 PM 40.3847 -101.7981 73° East 447 514 32,100 629 Climbing Denver Center
Fri 10:06:51 PM 40.4125 -101.6742 74° East 445 512 32,600 677 Climbing Denver Center
Fri 10:07:53 PM 40.4589 -101.4781 73° East 440 506 33,500 774 Climbing Denver Center
Fri 10:08:55 PM 40.4911 -101.3303 74° East 441 507 34,200 726 Climbing Denver Center
Fri 10:09:57 PM 40.5303 -101.1592 73° East 439 505 35,000 387 Climbing Denver Center
Fri 10:10:59 PM 40.5631 -101.0144 73° East 434 499 35,000  Level Denver Center
Fri 10:12:00 PM 40.5953 -100.8686 74° East 436 502 35,000  Level Denver Center
Fri 10:13:02 PM 40.6333 -100.6986 74° East 440 506 35,000  Level Denver Center
Fri 10:14:04 PM 40.6708 -100.5294 74° East 438 504 35,000  Level Denver Center
Fri 10:15:06 PM 40.7028 -100.3839 74° East 436 502 35,000  Level Denver Center
Fri 10:16:08 PM 40.7403 -100.2125 74° East 437 503 35,000  Level Denver Center
Fri 10:17:09 PM 40.7717 -100.0639 74° East 440 506 35,000  Level Denver Center
Fri 10:18:23 PM 40.8031 -99.9161 74° East 439 505 35,000  Level Denver Center
Fri 10:19:25 PM 40.8475 -99.7119 74° East 440 506 35,000  Level Denver Center
Fri 10:20:27 PM 40.8731 -99.5861 75° East 443 510 35,000  Level Denver Center
Fri 10:21:29 PM 40.9131 -99.3983 74° East 443 510 35,000  Level Denver Center
Fri 10:22:31 PM 40.9456 -99.2403 75° East 444 511 35,000  Level Denver Center
Fri 10:23:32 PM 40.9814 -99.0656 75° East 445 512 35,000  Level Denver Center
Fri 10:23:48 PM 40.9861 -99.0428 75° East 445 512 35,000  Level Minneapolis Center
Fri 10:24:49 PM 41.0106 -98.9175 75° East 444 511 35,000  Level Minneapolis Center
Fri 10:25:50 PM 41.0564 -98.6917 75° East 451 519 35,000  Level Minneapolis Center
Fri 10:26:51 PM 41.0892 -98.5331 75° East 448 516 35,000  Level Minneapolis Center
Fri 10:27:52 PM 41.1164 -98.3942 75° East 447 514 35,000 148 Level Minneapolis Center
Fri 10:28:53 PM 41.1536 -98.2036 75° East 447 514 35,300 390 Climbing Minneapolis Center
Fri 10:29:55 PM 41.1850 -98.0450 75° East 445 512 35,800 488 Climbing Minneapolis Center
Fri 10:30:56 PM 41.2153 -97.8850 76° East 446 513 36,300 492 Climbing Minneapolis Center
Fri 10:31:57 PM 41.2464 -97.7267 75° East 444 511 36,800 344 Climbing Minneapolis Center
Fri 10:32:58 PM 41.2769 -97.5672 76° East 445 512 37,000 98 Climbing Minneapolis Center
Fri 10:33:59 PM 41.3078 -97.4047 76° East 450 518 37,000  Level Minneapolis Center
Fri 10:35:00 PM 41.3367 -97.2503 76° East 457 526 37,000  Level Minneapolis Center
Fri 10:36:01 PM 41.3664 -97.0883 76° East 452 520 37,000  Level Minneapolis Center
Fri 10:37:02 PM 41.3958 -96.9261 76° East 450 518 37,000  Level Minneapolis Center
Fri 10:38:04 PM 41.4325 -96.7325 76° East 449 517 37,000  Level Minneapolis Center
Fri 10:39:05 PM 41.4622 -96.5697 76° East 450 518 37,000  Level Minneapolis Center
Fri 10:40:06 PM 41.4911 -96.4061 77° East 451 519 37,000  Level Minneapolis Center
Fri 10:41:07 PM 41.5231 -96.2347 76° East 453 521 37,000  Level Minneapolis Center
Fri 10:42:08 PM 41.5408 -96.0681 82° East 451 519 37,000 -197 Level Minneapolis Center
Fri 10:43:09 PM 41.5614 -95.9006 81° East 456 525 36,600 -443 Descending Minneapolis Center
Fri 10:44:10 PM 41.5783 -95.7278 82° East 464 534 36,100 -492 Descending Minneapolis Center
Fri 10:45:11 PM 41.5958 -95.5522 82° East 471 542 35,600 -488 Descending Minneapolis Center
Fri 10:46:13 PM 41.6258 -95.3850 76° East 465 535 35,100 -293 Descending Minneapolis Center
Fri 10:47:14 PM 41.6553 -95.2147 77° East 468 539 35,000 -49 Descending Minneapolis Center
Fri 10:48:15 PM 41.6825 -95.0503 77° East 458 527 35,000  Level Minneapolis Center
Fri 10:49:16 PM 41.7097 -94.8869 77° East 451 519 35,000  Level Minneapolis Center
Fri 10:50:17 PM 41.7369 -94.7217 78° East 453 521 35,000  Level Minneapolis Center
Fri 10:51:18 PM 41.7661 -94.5511 77° East 466 536 35,000  Level Minneapolis Center
Fri 10:52:20 PM 41.7942 -94.3814 77° East 467 537 35,000  Level Minneapolis Center
Fri 10:53:21 PM 41.8231 -94.2078 77° East 476 548 35,000  Level Minneapolis Center
Fri 10:54:22 PM 41.8503 -94.0328 78° East 478 550 35,000  Level Minneapolis Center
Fri 10:55:23 PM 41.8819 -93.8389 78° East 479 551 35,000  Level Minneapolis Center
Fri 10:56:25 PM 41.9094 -93.6653 78° East 478 550 35,000  Level Minneapolis Center
Fri 10:57:26 PM 41.9367 -93.4911 78° East 478 550 35,000  Level Minneapolis Center
Fri 10:58:27 PM 41.9642 -93.3142 78° East 479 551 35,000  Level Minneapolis Center
Fri 10:59:28 PM 41.9919 -93.1397 78° East 481 554 35,000  Level Minneapolis Center
Fri 11:00:33 PM 42.0219 -92.9269 79° East 487 560 35,000 -143 Level Minneapolis Center
Fri 11:01:34 PM 42.0481 -92.7525 79° East 484 557 34,700 -390 Descending Minneapolis Center
Fri 11:02:36 PM 42.0744 -92.5828 78° East 477 549 34,200 -519 Descending Minneapolis Center
Fri 11:02:55 PM 42.0825 -92.5133 81° East 471 542 34,000 -150 Descending Chicago Center
Fri 11:03:56 PM 42.1083 -92.3464 78° East 463 533 34,000  Level Chicago Center
Fri 11:04:57 PM 42.1328 -92.1772 79° East 465 535 34,000  Level Chicago Center
Fri 11:05:58 PM 42.1578 -92.0061 79° East 471 542 34,000  Level Chicago Center
Fri 11:06:59 PM 42.1817 -91.8322 79° East 479 551 34,000  Level Chicago Center
Fri 11:08:01 PM 42.2058 -91.6558 79° East 485 558 34,000  Level Chicago Center
Fri 11:09:02 PM 42.2356 -91.4447 79° East 485 558 34,000  Level Chicago Center
Fri 11:10:03 PM 42.2589 -91.2683 80° East 487 560 34,000  Level Chicago Center
Fri 11:11:04 PM 42.2828 -91.0925 80° East 483 556 34,000  Level Chicago Center
Fri 11:12:05 PM 42.3042 -90.9186 81° East 479 551 34,000  Level Chicago Center
Fri 11:13:06 PM 42.3272 -90.7433 80° East 479 551 34,000  Level Chicago Center
Fri 11:14:07 PM 42.3492 -90.5700 80° East 474 545 34,000  Level Chicago Center
Fri 11:15:08 PM 42.3758 -90.3594 80° East 479 551 34,000  Level Chicago Center
Fri 11:16:10 PM 42.3978 -90.1853 80° East 474 545 34,000  Level Chicago Center
Fri 11:17:11 PM 42.4194 -90.0092 80° East 478 550 34,000  Level Chicago Center
Fri 11:18:12 PM 42.4417 -89.8342 80° East 478 550 34,000  Level Chicago Center
Fri 11:19:13 PM 42.4631 -89.6569 81° East 478 550 34,000  Level Chicago Center
Fri 11:20:14 PM 42.4836 -89.4778 81° East 481 554 34,000  Level Chicago Center
Fri 11:21:15 PM 42.5056 -89.2969 81° East 486 559 34,000  Level Chicago Center
Fri 11:22:16 PM 42.5303 -89.0850 81° East 490 564 34,000  Level Chicago Center
Fri 11:23:17 PM 42.5514 -88.9003 81° East 494 568 34,000  Level Chicago Center
Fri 11:24:18 PM 42.5719 -88.7131 81° East 500 575 34,000  Level Chicago Center
Fri 11:25:19 PM 42.5931 -88.5242 81° East 505 581 34,000  Level Chicago Center
Fri 11:26:20 PM 42.6139 -88.3331 82° East 512 589 34,000 -49 Level Chicago Center
Fri 11:27:21 PM 42.6342 -88.1417 82° East 513 590 33,900 -1,082 Descending Chicago Center
Fri 11:28:22 PM 42.6539 -87.9550 82° East 503 579 31,800 -2,016 Descending Chicago Center
Fri 11:29:23 PM 42.6725 -87.7725 82° East 493 567 29,800 -2,066 Descending Chicago Center
Fri 11:30:24 PM 42.6911 -87.5936 82° East 481 554 27,600 -2,115 Descending Chicago Center
Fri 11:31:25 PM 42.7081 -87.4261 82° East 452 520 25,500 -2,213 Descending Chicago Center
Fri 11:32:26 PM 42.7267 -87.2406 82° East 437 503 23,100 -2,213 Descending Chicago Center
Fri 11:33:27 PM 42.7411 -87.0811 83° East 428 493 21,000 -2,066 Descending Chicago Center
Fri 11:34:28 PM 42.7578 -86.9144 82° East 444 511 18,900 -2,016 Descending Chicago Center
Fri 11:35:29 PM 42.7717 -86.7611 83° East 416 479 16,900 -2,083 Descending Chicago Center
Fri 11:36:29 PM 42.7856 -86.6158 83° East 393 452 14,700 -1,835 Descending Chicago Center
Fri 11:37:30 PM 42.7983 -86.4825 83° East 362 417 13,200 -1,672 Descending Chicago Center
Fri 11:38:31 PM 42.8092 -86.3631 83° East 328 377 11,300 -1,770 Descending Chicago Center
Fri 11:39:32 PM 42.8064 -86.2469 92° East 314 361 9,600 -1,623 Descending Chicago Center
Fri 11:40:33 PM 42.8081 -86.1414 89° East 284 327 8,000 -1,180 Descending Chicago Center
Fri 11:41:34 PM 42.8175 -86.0489 82° East 258 297 7,200 -590 Descending Chicago Center
Fri 11:42:35 PM 42.8306 -85.9461 80° East 236 272 6,800 -744 Descending Chicago Center
Fri 11:43:35 PM 42.8400 -85.8597 81° East 234 269 5,700 -1,240 Descending Chicago Center
Fri 11:44:36 PM 42.8497 -85.7756 81° East 229 264 4,300 -1,230 Descending Chicago Center
Fri 11:45:37 PM 42.8592 -85.6936 81° East 224 258 3,200 -1,082 Descending Chicago Center
Fri 11:46:38 PM 42.8664 -85.6228 82° East 208 239 2,100 -934 Descending Chicago Center
Fri 11:47:39 PM 42.8728 -85.5694 81° East 171 197 1,300 -590 Descending Chicago Center
Fri 11:48:40 PM 42.8794 -85.5100 81° East 156 180 900 -393 Descending Chicago Center
Fri 11:50:00 PM 42.8667 -85.5167 90° East  Level FlightAware Approximate
Fri 11:57:00 PM 42.8808 -85.5228 90° East  Level Estimated

Login

Don't have an account? Register now (free) for customized features, flight alerts, and more!